Time;durP1;ratioP1;P1;durP2;ratioP2;P2;SDS_P1;SDS_P2;PMS_P1;PMS_P2;Temp;Humidity;BMP_temperature;BMP_pressure;BME280_temperature;BME280_humidity;BME280_pressure;Samples;Min_cycle;Max_cycle;Signal;HPM_P1;HPM_P2
2022/07/31 00:00:06;;;;;;;4.28;2.38;;;;;;;21.20;49.01;99735.56;343766;28;1295;-72
2022/07/31 00:00:18;;;;;;;4.15;2.50;;;;;;;21.18;49.16;99732.19;343790;28;1174;-72
2022/07/31 00:00:30;;;;;;;3.30;2.55;;;;;;;21.18;49.12;99729.56;343786;28;1201;-72
2022/07/31 00:00:43;;;;;;;4.00;2.50;;;;;;;21.19;48.96;99728.59;345314;28;1062;-72
2022/07/31 00:00:55;;;;;;;4.90;2.50;;;;;;;21.18;49.10;99729.56;344871;28;1244;-72
2022/07/31 00:01:07;;;;;;;5.15;2.60;;;;;;;21.18;49.10;99726.91;346094;28;1980;-72
2022/07/31 00:01:19;;;;;;;3.43;2.40;;;;;;;21.18;49.18;99726.91;344813;28;1908;-72
2022/07/31 00:01:31;;;;;;;3.42;2.33;;;;;;;21.19;49.43;99728.59;344195;28;1801;-72
2022/07/31 00:01:43;;;;;;;3.60;2.40;;;;;;;21.15;49.04;99723.53;344528;28;1039;-72
2022/07/31 00:01:55;;;;;;;3.75;2.47;;;;;;;21.17;48.71;99727.84;344929;28;1222;-72
2022/07/31 00:02:07;;;;;;;2.67;2.40;;;;;;;21.14;49.18;99732.41;345937;28;1233;-72
2022/07/31 00:02:19;;;;;;;3.58;2.80;;;;;;;21.15;48.86;99728.84;346181;28;1108;-72
2022/07/31 00:02:32;;;;;;;4.38;2.80;;;;;;;21.17;48.72;99728.72;346078;28;1046;-72
2022/07/31 00:02:44;;;;;;;3.97;2.80;;;;;;;21.18;48.82;99729.56;346061;28;1240;-72
2022/07/31 00:02:56;;;;;;;3.17;2.58;;;;;;;21.20;48.64;99730.28;345030;28;1343;-72
2022/07/31 00:03:08;;;;;;;3.83;2.70;;;;;;;21.19;48.95;99723.31;343872;28;1074;-72
2022/07/31 00:03:21;;;;;;;5.13;2.72;;;;;;;21.18;48.72;99732.19;343751;28;1032;-72
2022/07/31 00:03:33;;;;;;;4.97;2.50;;;;;;;21.17;48.66;99731.38;343602;28;1213;-72
2022/07/31 00:03:45;;;;;;;4.05;2.60;;;;;;;21.17;48.63;99727.84;344032;28;1073;-72
2022/07/31 00:03:57;;;;;;;3.83;2.58;;;;;;;21.14;49.10;99728.94;342198;28;2769;-72
2022/07/31 00:04:09;;;;;;;3.85;2.60;;;;;;;21.13;48.99;99730.75;342838;28;3260;-72
2022/07/31 00:04:26;;;;;;;2.70;2.50;;;;;;;21.11;49.09;99727.38;343127;28;4834;-72
2022/07/31 00:04:38;;;;;;;2.88;2.53;;;;;;;21.12;49.30;99731.69;344663;28;2948;-72
2022/07/31 00:04:51;;;;;;;3.25;2.53;;;;;;;21.10;49.29;99730.97;344818;28;1227;-72
2022/07/31 00:05:04;;;;;;;3.30;2.38;;;;;;;21.10;49.27;99736.25;344653;28;1850;-72
2022/07/31 00:05:16;;;;;;;3.03;2.30;;;;;;;21.09;49.30;99729.31;344663;28;1063;-72
2022/07/31 00:05:29;;;;;;;4.20;2.40;;;;;;;21.08;48.74;99730.25;344866;28;1211;-72
2022/07/31 00:05:41;;;;;;;3.53;2.38;;;;;;;21.09;48.73;99733.75;344659;28;1317;-72
2022/07/31 00:05:53;;;;;;;2.63;2.40;;;;;;;21.05;48.73;99727.84;344782;28;1066;-72
2022/07/31 00:06:07;;;;;;;3.40;2.55;;;;;;;21.04;49.20;99730.59;343662;28;1305;-72
2022/07/31 00:06:20;;;;;;;5.10;2.63;;;;;;;21.05;49.71;99722.56;343738;28;2187;-72
2022/07/31 00:06:33;;;;;;;5.20;2.70;;;;;;;21.05;49.75;99729.66;344165;28;1166;-72
2022/07/31 00:06:45;;;;;;;3.92;2.60;;;;;;;21.05;49.04;99733.13;344803;28;1057;-72
2022/07/31 00:06:57;;;;;;;4.32;2.63;;;;;;;21.02;49.56;99725.41;344730;28;1148;-72
2022/07/31 00:07:10;;;;;;;3.75;2.70;;;;;;;21.03;48.93;99729.75;344125;28;2034;-72
2022/07/31 00:07:22;;;;;;;3.35;2.80;;;;;;;21.05;48.97;99727.84;343701;28;1236;-72
2022/07/31 00:07:34;;;;;;;3.20;2.70;;;;;;;21.08;48.94;99727.59;343479;28;1226;-72
2022/07/31 00:07:46;;;;;;;3.72;2.53;;;;;;;21.09;48.94;99734.59;342599;28;1180;-72
2022/07/31 00:07:58;;;;;;;3.63;2.55;;;;;;;21.09;49.02;99734.59;342772;28;1761;-72
2022/07/31 00:08:10;;;;;;;3.22;2.67;;;;;;;21.10;48.57;99733.59;343801;28;1289;-72
2022/07/31 00:08:22;;;;;;;2.97;2.60;;;;;;;21.09;48.56;99733.75;342493;28;726;-72
2022/07/31 00:08:34;;;;;;;7.75;2.53;;;;;;;21.08;48.58;99732.06;341533;28;1817;-72
2022/07/31 00:08:48;;;;;;;8.05;2.47;;;;;;;21.07;48.56;99725.94;342294;28;1685;-72
2022/07/31 00:09:00;;;;;;;5.72;2.58;;;;;;;21.06;48.59;99734.81;341772;28;1877;-72
2022/07/31 00:09:12;;;;;;;3.88;2.60;;;;;;;21.06;48.41;99731.31;342390;28;1325;-72
2022/07/31 00:09:44;;;;;;;4.93;2.58;;;;;;;21.05;49.18;99727.84;342474;28;1386;-72
2022/07/31 00:10:06;;;;;;;4.38;2.70;;;;;;;21.05;49.43;99732.28;343582;28;1234;-72
2022/07/31 00:10:18;;;;;;;3.05;2.60;;;;;;;21.04;49.40;99731.44;343634;28;1170;-72
2022/07/31 00:10:30;;;;;;;3.08;2.50;;;;;;;21.02;49.27;99736.00;343647;28;1158;-72
2022/07/31 00:10:42;;;;;;;3.45;2.50;;;;;;;21.01;49.24;99730.84;344500;28;1227;-72
2022/07/31 00:10:55;;;;;;;4.32;2.70;;;;;;;21.00;49.23;99729.97;344622;28;1092;-72
2022/07/31 00:11:10;;;;;;;4.43;2.67;;;;;;;21.00;48.65;99724.69;343669;28;1019;-72
2022/07/31 00:11:22;;;;;;;3.97;2.58;;;;;;;20.98;48.94;99737.19;344369;28;1816;-72
2022/07/31 00:11:34;;;;;;;3.20;2.50;;;;;;;20.99;49.23;99738.88;344844;28;1883;-72
2022/07/31 00:11:46;;;;;;;2.85;2.53;;;;;;;20.98;49.45;99739.81;345115;28;1314;-72
2022/07/31 00:11:58;;;;;;;3.50;2.60;;;;;;;20.98;49.11;99731.06;343929;28;1343;-72
2022/07/31 00:12:10;;;;;;;3.67;2.60;;;;;;;21.01;48.91;99731.69;344813;28;1197;-72
2022/07/31 00:12:22;;;;;;;6.65;2.70;;;;;;;21.00;48.67;99737.91;344846;28;1114;-72
2022/07/31 00:12:34;;;;;;;10.23;2.75;;;;;;;21.00;48.80;99731.78;344744;28;1126;-72
2022/07/31 00:12:46;;;;;;;9.57;2.58;;;;;;;20.99;48.91;99733.59;344139;28;1118;-72
2022/07/31 00:12:58;;;;;;;8.93;2.47;;;;;;;20.97;49.31;99735.50;343599;28;1341;-72
2022/07/31 00:13:10;;;;;;;3.90;2.58;;;;;;;20.95;49.36;99735.63;343770;28;1249;-72
2022/07/31 00:13:22;;;;;;;3.33;2.60;;;;;;;20.95;49.46;99732.13;343274;28;1726;-72
2022/07/31 00:13:54;;;;;;;3.17;2.70;;;;;;;20.92;49.41;99732.34;342836;28;1552;-72
2022/07/31 00:14:10;;;;;;;3.53;2.70;;;;;;;20.91;49.82;99725.41;342725;28;1654;-72
2022/07/31 00:14:22;;;;;;;3.70;2.58;;;;;;;20.92;50.24;99729.72;342381;28;1642;-72
2022/07/31 00:14:34;;;;;;;3.85;2.67;;;;;;;20.92;50.11;99730.53;342418;28;1221;-72
2022/07/31 00:14:47;;;;;;;3.35;2.53;;;;;;;20.93;50.27;99732.25;342240;28;1170;-72
2022/07/31 00:15:00;;;;;;;3.70;2.53;;;;;;;20.93;50.38;99729.59;342582;28;1212;-72
2022/07/31 00:15:12;;;;;;;3.47;2.50;;;;;;;20.95;50.38;99732.13;343449;28;1051;-72
2022/07/31 00:15:25;;;;;;;2.63;2.40;;;;;;;20.93;50.31;99729.59;343710;28;1097;-72
2022/07/31 00:15:37;;;;;;;2.75;2.50;;;;;;;20.93;49.89;99729.59;343617;28;1150;-72
2022/07/31 00:15:49;;;;;;;3.20;2.50;;;;;;;20.94;49.83;99730.44;343728;28;1166;-72
2022/07/31 00:16:01;;;;;;;3.05;2.40;;;;;;;20.94;50.43;99727.78;344418;28;1451;-72
2022/07/31 00:16:13;;;;;;;2.80;2.20;;;;;;;20.95;50.57;99721.56;345029;28;1074;-72
2022/07/31 00:16:28;;;;;;;2.72;2.38;;;;;;;20.94;50.71;99722.50;344916;28;1166;-72
2022/07/31 00:16:40;;;;;;;2.63;2.40;;;;;;;20.95;50.52;99732.97;345604;28;1280;-72
2022/07/31 00:16:52;;;;;;;2.75;2.40;;;;;;;20.96;50.52;99725.88;344772;28;1099;-72
2022/07/31 00:17:04;;;;;;;3.60;2.60;;;;;;;20.97;50.17;99719.66;346088;28;1181;-72
2022/07/31 00:17:16;;;;;;;4.10;2.60;;;;;;;20.97;50.05;99724.94;346265;28;1310;-72
2022/07/31 00:17:28;;;;;;;3.83;2.60;;;;;;;20.96;49.99;99731.16;346243;28;1075;-72
2022/07/31 00:17:42;;;;;;;3.00;2.70;;;;;;;20.95;49.89;99722.41;346282;28;1106;-72
2022/07/31 00:17:54;;;;;;;3.00;2.70;;;;;;;20.96;50.05;99717.94;346103;28;1296;-72
2022/07/31 00:18:07;;;;;;;4.20;2.65;;;;;;;20.97;49.71;99721.44;346173;28;1110;-72
2022/07/31 00:18:19;;;;;;;4.07;2.50;;;;;;;20.97;49.87;99719.66;345335;28;1203;-72
2022/07/31 00:18:32;;;;;;;3.60;2.30;;;;;;;20.96;50.27;99723.25;344055;28;1726;-72
2022/07/31 00:18:45;;;;;;;3.65;2.35;;;;;;;20.96;50.01;99723.25;343930;28;1067;-72
2022/07/31 00:18:57;;;;;;;4.00;2.50;;;;;;;20.97;50.32;99724.94;344129;28;1141;-72
2022/07/31 00:19:09;;;;;;;3.97;2.50;;;;;;;20.95;50.14;99717.13;344492;28;1111;-72
2022/07/31 00:19:21;;;;;;;5.72;2.65;;;;;;;20.96;49.69;99717.94;345024;28;1071;-72
2022/07/31 00:19:33;;;;;;;5.57;2.50;;;;;;;20.94;50.40;99730.44;344955;28;1218;-72
2022/07/31 00:19:45;;;;;;;5.57;2.53;;;;;;;20.93;49.94;99719.03;344976;28;1302;-72
2022/07/31 00:19:57;;;;;;;2.97;2.40;;;;;;;20.92;50.11;99716.50;344810;28;1252;-72
2022/07/31 00:20:14;;;;;;;3.53;2.47;;;;;;;20.91;50.46;99722.75;345119;28;1114;-72
2022/07/31 00:20:26;;;;;;;3.25;2.20;;;;;;;20.92;50.28;99724.41;344843;28;1223;-72
2022/07/31 00:20:38;;;;;;;3.00;2.30;;;;;;;20.90;50.64;99726.34;343729;28;2081;-72
2022/07/31 00:20:50;;;;;;;4.03;2.50;;;;;;;20.88;50.44;99726.44;343543;28;1772;-72
2022/07/31 00:21:03;;;;;;;3.92;2.50;;;;;;;20.89;50.36;99724.66;344085;28;1836;-72
2022/07/31 00:21:15;;;;;;;3.03;2.42;;;;;;;20.87;50.18;99723.94;342416;28;1636;-72
2022/07/31 00:21:27;;;;;;;4.15;2.50;;;;;;;20.86;50.03;99719.59;342485;28;1014;-72
2022/07/31 00:21:39;;;;;;;4.43;2.55;;;;;;;20.86;50.46;99724.88;343258;28;1230;-72
2022/07/31 00:21:51;;;;;;;4.13;2.63;;;;;;;20.85;50.30;99723.22;342319;28;3471;-72
2022/07/31 00:22:03;;;;;;;4.57;2.70;;;;;;;20.85;50.29;99726.69;343318;28;2498;-72
2022/07/31 00:22:15;;;;;;;3.92;2.50;;;;;;;20.85;50.16;99724.03;343085;28;2234;-72
2022/07/31 00:22:27;;;;;;;3.97;2.53;;;;;;;20.84;50.30;99727.63;343337;28;2538;-72
2022/07/31 00:22:41;;;;;;;4.40;2.60;;;;;;;20.84;50.39;99726.78;342322;28;1106;-72
2022/07/31 00:22:53;;;;;;;4.35;2.50;;;;;;;20.85;50.25;99723.22;342586;28;1922;-72
2022/07/31 00:23:05;;;;;;;5.45;2.50;;;;;;;20.85;50.16;99723.22;343686;28;1031;-72
2022/07/31 00:23:17;;;;;;;5.88;2.60;;;;;;;20.84;50.32;99724.16;344074;28;1038;-72
2022/07/31 00:23:29;;;;;;;5.60;2.47;;;;;;;20.84;50.33;99721.50;344012;28;1034;-72
2022/07/31 00:23:41;;;;;;;3.88;2.25;;;;;;;20.86;50.18;99727.53;343431;28;1855;-72
2022/07/31 00:23:53;;;;;;;3.55;2.28;;;;;;;20.85;50.23;99728.50;344457;28;2242;-72
2022/07/31 00:24:05;;;;;;;3.17;2.25;;;;;;;20.86;50.14;99716.97;344851;28;1121;-72
2022/07/31 00:24:18;;;;;;;3.63;2.40;;;;;;;20.84;50.20;99724.16;344827;28;1118;-72
2022/07/31 00:24:29;;;;;;;4.53;2.50;;;;;;;20.85;50.87;99725.84;344767;28;1079;-72
2022/07/31 00:24:41;;;;;;;4.47;2.55;;;;;;;20.86;50.76;99719.59;344746;28;1270;-72
2022/07/31 00:24:53;;;;;;;3.28;2.55;;;;;;;20.86;50.47;99722.25;344301;28;2136;-72
2022/07/31 00:25:06;;;;;;;3.47;2.60;;;;;;;20.86;50.32;99722.25;344779;28;1356;-72
2022/07/31 00:25:18;;;;;;;3.85;2.60;;;;;;;20.85;50.45;99724.03;344739;28;1111;-72
2022/07/31 00:25:30;;;;;;;5.70;2.78;;;;;;;20.84;50.51;99718.88;344714;28;1606;-72
2022/07/31 00:25:42;;;;;;;5.70;2.70;;;;;;;20.83;50.50;99717.19;344841;28;1264;-72
2022/07/31 00:25:54;;;;;;;5.57;2.33;;;;;;;20.83;50.46;99719.84;344377;28;1059;-72
2022/07/31 00:26:07;;;;;;;4.88;2.55;;;;;;;20.82;50.48;99720.78;342557;28;2037;-72
2022/07/31 00:26:19;;;;;;;3.97;2.50;;;;;;;20.80;50.14;99722.69;342873;28;1531;-72
2022/07/31 00:26:31;;;;;;;3.50;2.47;;;;;;;20.79;49.83;99718.38;343804;28;1069;-72
2022/07/31 00:26:43;;;;;;;4.22;2.47;;;;;;;20.78;50.27;99719.31;343695;28;1195;-72
2022/07/31 00:26:55;;;;;;;5.13;2.50;;;;;;;20.75;50.38;99726.53;343132;28;1926;-72
2022/07/31 00:27:09;;;;;;;5.55;2.50;;;;;;;20.73;50.37;99717.88;343743;28;1098;-72
2022/07/31 00:27:22;;;;;;;4.97;2.47;;;;;;;20.75;50.17;99721.25;343326;28;1163;-72
2022/07/31 00:27:34;;;;;;;4.30;2.55;;;;;;;20.73;50.20;99723.16;343733;28;1058;-72
2022/07/31 00:27:46;;;;;;;4.28;2.50;;;;;;;20.71;49.83;99721.59;343658;28;1103;-72
2022/07/31 00:27:58;;;;;;;4.25;2.40;;;;;;;20.68;50.35;99717.34;343793;28;1268;-72
2022/07/31 00:28:10;;;;;;;4.95;2.47;;;;;;;20.67;50.71;99726.25;343446;28;1057;-72
2022/07/31 00:28:22;;;;;;;6.50;2.50;;;;;;;20.66;50.51;99719.25;341959;28;1179;-72
2022/07/31 00:28:35;;;;;;;5.85;2.53;;;;;;;20.62;50.42;99720.44;341041;29;1069;-72
2022/07/31 00:28:47;;;;;;;2.70;2.35;;;;;;;20.62;50.80;99719.59;340855;29;1020;-72
2022/07/31 00:28:59;;;;;;;2.80;2.30;;;;;;;20.60;50.83;99717.06;340649;28;1683;-72
2022/07/31 00:29:11;;;;;;;3.72;2.20;;;;;;;20.58;50.34;99718.94;340391;29;1691;-71
2022/07/31 00:29:27;;;;;;;4.18;2.40;;;;;;;20.55;50.27;99713.91;339852;29;1031;-71
2022/07/31 00:29:39;;;;;;;3.67;2.45;;;;;;;20.53;50.84;99721.94;340079;29;1074;-71
2022/07/31 00:29:51;;;;;;;3.08;2.50;;;;;;;20.52;50.44;99719.41;340098;28;1078;-71
2022/07/31 00:30:04;;;;;;;3.00;2.40;;;;;;;20.50;50.89;99716.03;342015;28;1334;-71
2022/07/31 00:30:16;;;;;;;3.47;2.30;;;;;;;20.48;50.99;99712.66;343184;28;1090;-72
2022/07/31 00:30:29;;;;;;;3.50;2.50;;;;;;;20.48;51.16;99717.94;342787;28;1878;-72
2022/07/31 00:30:41;;;;;;;4.57;2.58;;;;;;;20.47;51.16;99716.28;345780;28;1190;-72
2022/07/31 00:30:53;;;;;;;5.40;2.53;;;;;;;20.47;51.17;99721.56;346259;28;1118;-72
2022/07/31 00:31:05;;;;;;;4.50;2.45;;;;;;;20.47;51.38;99721.56;345318;28;1286;-72
2022/07/31 00:31:17;;;;;;;3.20;2.53;;;;;;;20.47;51.38;99722.38;345046;28;1196;-72
2022/07/31 00:31:29;;;;;;;3.15;2.70;;;;;;;20.47;50.89;99716.28;345239;28;754;-72
2022/07/31 00:31:41;;;;;;;2.92;2.63;;;;;;;20.46;50.72;99719.84;344585;28;1190;-72
2022/07/31 00:31:53;;;;;;;3.10;2.42;;;;;;;20.43;50.93;99720.09;345319;28;1062;-72
2022/07/31 00:32:05;;;;;;;4.90;2.50;;;;;;;20.44;50.92;99725.22;343479;28;1563;-72
2022/07/31 00:32:17;;;;;;;4.75;2.50;;;;;;;20.44;51.09;99721.75;343615;28;1338;-72
2022/07/31 00:32:29;;;;;;;3.60;2.50;;;;;;;20.44;51.06;99712.03;342756;28;1753;-72
2022/07/31 00:32:42;;;;;;;2.67;2.40;;;;;;;20.43;51.04;99720.91;342374;28;1135;-72
2022/07/31 00:32:54;;;;;;;2.78;2.40;;;;;;;20.45;51.15;99720.81;342267;28;1137;-72
2022/07/31 00:33:06;;;;;;;5.00;2.42;;;;;;;20.46;51.30;99719.84;342212;28;1103;-72
2022/07/31 00:33:18;;;;;;;5.22;2.65;;;;;;;20.46;51.50;99714.56;341149;29;1140;-72
2022/07/31 00:33:30;;;;;;;3.97;2.60;;;;;;;20.47;51.09;99721.56;340755;29;1256;-72
2022/07/31 00:33:42;;;;;;;3.03;2.60;;;;;;;20.47;51.09;99718.91;340709;29;1167;-72
2022/07/31 00:33:54;;;;;;;3.65;2.50;;;;;;;20.48;50.89;99723.22;340720;28;2094;-72
2022/07/31 00:34:06;;;;;;;4.05;2.50;;;;;;;20.47;50.92;99721.56;341836;28;1664;-72
2022/07/31 00:34:18;;;;;;;3.58;2.38;;;;;;;20.46;51.38;99711.94;341644;28;1706;-72
2022/07/31 00:34:30;;;;;;;7.72;2.50;;;;;;;20.46;50.99;99719.84;340884;29;1067;-72
2022/07/31 00:34:42;;;;;;;7.60;2.50;;;;;;;20.47;51.13;99721.56;341549;28;731;-72
2022/07/31 00:34:54;;;;;;;6.50;2.28;;;;;;;20.46;51.10;99714.56;342248;28;1738;-72
2022/07/31 00:35:07;;;;;;;3.00;2.20;;;;;;;20.46;51.27;99714.56;343668;28;1067;-72
2022/07/31 00:35:20;;;;;;;3.13;2.30;;;;;;;20.46;51.22;99720.69;343859;28;1016;-72
2022/07/31 00:35:32;;;;;;;2.92;2.40;;;;;;;20.47;50.92;99717.09;345051;28;1293;-72
2022/07/31 00:35:44;;;;;;;2.80;2.40;;;;;;;20.48;51.22;99723.22;344610;28;1196;-72
2022/07/31 00:35:56;;;;;;;3.63;2.45;;;;;;;20.47;51.13;99718.91;344503;28;1354;-72
2022/07/31 00:36:08;;;;;;;4.45;2.50;;;;;;;20.48;50.98;99712.66;345108;28;971;-72
2022/07/31 00:36:20;;;;;;;5.32;2.60;;;;;;;20.47;50.97;99719.75;345175;28;1110;-72
2022/07/31 00:36:41;;;;;;;4.15;2.70;;;;;;;20.50;51.12;99721.31;345170;28;1027;-72
2022/07/31 00:36:53;;;;;;;2.88;2.60;;;;;;;20.49;51.36;99719.63;345123;28;1106;-72
2022/07/31 00:37:05;;;;;;;2.80;2.50;;;;;;;20.48;51.03;99718.81;345208;28;1203;-72
2022/07/31 00:37:17;;;;;;;3.78;2.72;;;;;;;20.47;51.52;99718.91;343973;28;1155;-72
2022/07/31 00:37:30;;;;;;;3.65;2.70;;;;;;;20.50;51.11;99727.47;342801;28;1927;-72
2022/07/31 00:37:43;;;;;;;2.95;2.50;;;;;;;20.51;50.85;99717.72;343610;28;2146;-72
2022/07/31 00:37:55;;;;;;;2.70;2.40;;;;;;;20.53;50.65;99721.09;343908;28;1176;-72
2022/07/31 00:38:27;;;;;;;3.05;2.75;;;;;;;20.50;51.56;99724.81;342201;28;1519;-72
2022/07/31 00:38:39;;;;;;;3.42;2.58;;;;;;;20.51;51.32;99723.84;342290;28;1062;-72
2022/07/31 00:38:51;;;;;;;4.38;2.60;;;;;;;20.51;51.01;99723.00;343276;28;1195;-72
2022/07/31 00:39:03;;;;;;;4.63;2.70;;;;;;;20.53;50.98;99719.28;343394;28;1172;-72
2022/07/31 00:39:16;;;;;;;4.55;2.80;;;;;;;20.51;51.59;99723.84;343883;28;1041;-72
2022/07/31 00:39:29;;;;;;;4.70;2.78;;;;;;;20.51;51.43;99715.09;342359;28;1213;-72
2022/07/31 00:39:41;;;;;;;4.03;2.70;;;;;;;20.49;51.95;99717.00;342579;28;1093;-72
2022/07/31 00:39:53;;;;;;;3.25;2.50;;;;;;;20.49;51.88;99714.34;342234;28;1335;-72
2022/07/31 00:40:07;;;;;;;2.80;2.40;;;;;;;20.48;51.90;99720.59;341979;28;3070;-72
2022/07/31 00:40:19;;;;;;;2.92;2.42;;;;;;;20.47;51.77;99716.28;343439;28;2674;-72
2022/07/31 00:40:31;;;;;;;3.13;2.60;;;;;;;20.48;51.89;99717.94;343045;28;2501;-72
2022/07/31 00:40:47;;;;;;;3.88;2.55;;;;;;;20.44;51.77;99722.59;341698;28;2534;-72
2022/07/31 00:40:59;;;;;;;4.30;2.50;;;;;;;20.44;51.84;99719.13;341757;28;1854;-72
2022/07/31 00:41:11;;;;;;;3.92;2.67;;;;;;;20.43;51.73;99725.38;340681;28;2575;-72
2022/07/31 00:41:23;;;;;;;3.40;2.63;;;;;;;20.41;51.89;99717.56;342685;28;1094;-72
2022/07/31 00:41:41;;;;;;;3.10;2.67;;;;;;;20.40;51.67;99726.41;343290;28;1197;-72
2022/07/31 00:41:53;;;;;;;3.13;2.70;;;;;;;20.41;51.66;99722.00;342345;28;1039;-72
2022/07/31 00:42:19;;;;;;;3.40;2.80;;;;;;;20.39;52.21;99724.75;344058;28;2229;-72
2022/07/31 00:42:32;;;;;;;3.00;2.70;;;;;;;20.38;51.73;99723.03;343410;28;1226;-72
2022/07/31 00:42:44;;;;;;;4.13;2.65;;;;;;;20.35;51.64;99725.91;343394;28;1020;-72
2022/07/31 00:42:56;;;;;;;5.32;2.90;;;;;;;20.38;51.53;99722.19;343782;28;1148;-72
2022/07/31 00:43:08;;;;;;;4.22;2.70;;;;;;;20.35;51.59;99725.91;343636;28;1106;-72
2022/07/31 00:43:20;;;;;;;3.88;2.72;;;;;;;20.33;51.83;99726.03;343251;28;1014;-72
2022/07/31 00:43:32;;;;;;;3.00;2.70;;;;;;;20.37;51.82;99728.44;343478;28;1047;-72
2022/07/31 00:43:44;;;;;;;2.83;2.60;;;;;;;20.39;51.58;99723.91;343647;28;1288;-72
2022/07/31 00:43:56;;;;;;;3.40;2.60;;;;;;;20.37;51.99;99728.44;343745;28;1269;-72
2022/07/31 00:44:10;;;;;;;3.47;2.70;;;;;;;20.38;52.06;99722.19;343591;28;1187;-72
2022/07/31 00:44:23;;;;;;;4.32;2.60;;;;;;;20.39;52.04;99724.75;342591;28;1716;-72
2022/07/31 00:44:36;;;;;;;4.82;2.83;;;;;;;20.40;51.86;99722.94;342972;28;1442;-72
2022/07/31 00:44:50;;;;;;;4.05;2.88;;;;;;;20.40;51.98;99722.94;343766;28;1122;-72
2022/07/31 00:45:02;;;;;;;3.17;2.88;;;;;;;20.39;51.77;99723.91;343038;28;1583;-72
2022/07/31 00:45:16;;;;;;;3.80;2.90;;;;;;;20.40;51.66;99725.56;343711;28;1264;-72
2022/07/31 00:45:34;;;;;;;7.40;2.85;;;;;;;20.40;51.42;99721.13;343745;28;1082;-72
2022/07/31 00:45:49;;;;;;;8.15;2.80;;;;;;;20.40;51.56;99725.56;343677;28;1169;-72
2022/07/31 00:46:09;;;;;;;3.45;2.63;;;;;;;20.37;52.37;99725.81;342871;28;2434;-72
2022/07/31 00:46:26;;;;;;;3.80;2.75;;;;;;;20.35;52.17;99724.13;343797;28;1196;-72
2022/07/31 00:46:39;;;;;;;3.90;2.80;;;;;;;20.37;52.17;99728.44;343438;28;1138;-72
2022/07/31 00:46:51;;;;;;;3.50;2.75;;;;;;;20.34;51.93;99727.72;343682;28;1187;-72
2022/07/31 00:47:04;;;;;;;3.53;2.53;;;;;;;20.31;52.01;99722.66;342919;28;2048;-72
2022/07/31 00:47:18;;;;;;;5.45;2.80;;;;;;;20.27;52.23;99720.34;343672;28;1038;-72
2022/07/31 00:47:36;;;;;;;4.63;2.80;;;;;;;20.26;52.67;99727.44;342410;28;1192;-72
2022/07/31 00:47:50;;;;;;;3.53;2.63;;;;;;;20.25;52.28;99724.91;342326;28;1043;-72
2022/07/31 00:48:06;;;;;;;3.58;2.80;;;;;;;20.22;52.78;99723.31;343994;28;1054;-72
2022/07/31 00:48:19;;;;;;;3.10;2.75;;;;;;;20.21;52.71;99729.53;343672;28;1167;-72
2022/07/31 00:48:32;;;;;;;3.00;2.70;;;;;;;20.19;53.07;99723.53;343876;28;1043;-72
2022/07/31 00:48:44;;;;;;;3.08;2.70;;;;;;;20.20;52.71;99719.91;342952;28;1965;-72
2022/07/31 00:48:56;;;;;;;3.13;2.70;;;;;;;20.21;52.65;99721.63;342485;28;1165;-72
2022/07/31 00:49:11;;;;;;;3.10;2.80;;;;;;;20.21;53.16;99716.34;343540;28;1237;-72
2022/07/31 00:49:23;;;;;;;3.10;2.80;;;;;;;20.22;52.88;99722.47;343795;28;1231;-72
2022/07/31 00:49:35;;;;;;;3.30;2.80;;;;;;;20.22;52.80;99725.97;343725;28;1123;-72
2022/07/31 00:49:49;;;;;;;3.22;2.75;;;;;;;20.25;52.32;99722.25;343615;28;1906;-72
2022/07/31 00:50:01;;;;;;;4.15;2.80;;;;;;;20.26;52.45;99724.78;343738;28;1175;-72
2022/07/31 00:50:13;;;;;;;3.72;2.70;;;;;;;20.27;52.42;99721.19;343845;28;1014;-72
2022/07/31 00:50:25;;;;;;;3.15;2.70;;;;;;;20.29;52.40;99719.28;343901;28;1052;-72
2022/07/31 00:50:37;;;;;;;4.03;2.80;;;;;;;20.30;52.29;99715.69;343479;28;1474;-72
2022/07/31 00:50:49;;;;;;;5.10;2.80;;;;;;;20.33;52.18;99726.03;343544;28;1296;-72
2022/07/31 00:51:01;;;;;;;4.72;2.70;;;;;;;20.30;51.87;99725.38;345752;28;1827;-72
2022/07/31 00:51:13;;;;;;;5.53;2.60;;;;;;;20.28;51.77;99722.03;345905;28;1265;-72
2022/07/31 00:51:26;;;;;;;4.35;2.75;;;;;;;20.13;51.60;99729.25;343974;28;1661;-71
2022/07/31 00:51:38;;;;;;;3.72;2.80;;;;;;;20.08;51.54;99726.06;343845;28;1679;-71
2022/07/31 00:51:50;;;;;;;3.13;2.50;;;;;;;19.99;51.77;99721.47;343498;28;1809;-71
2022/07/31 00:52:03;;;;;;;4.28;2.50;;;;;;;19.91;51.88;99724.66;345012;28;1632;-71
2022/07/31 00:52:15;;;;;;;5.30;2.63;;;;;;;19.95;52.13;99736.66;344258;28;1065;-71
2022/07/31 00:52:27;;;;;;;5.47;2.75;;;;;;;19.95;52.46;99724.31;345127;28;758;-71
2022/07/31 00:52:39;;;;;;;5.45;2.72;;;;;;;19.97;52.50;99724.22;344886;28;1077;-71
2022/07/31 00:52:51;;;;;;;5.35;2.80;;;;;;;19.99;52.25;99724.13;343428;28;1820;-71
2022/07/31 00:53:03;;;;;;;4.53;2.72;;;;;;;20.00;51.95;99723.16;344347;28;1094;-71
2022/07/31 00:53:18;;;;;;;4.18;2.90;;;;;;;19.99;51.75;99724.13;343494;28;1070;-71
2022/07/31 00:53:31;;;;;;;3.92;3.00;;;;;;;19.97;51.55;99728.66;343063;28;1766;-72
2022/07/31 00:53:43;;;;;;;5.50;3.00;;;;;;;19.93;51.65;99728.84;342795;28;1877;-72
2022/07/31 00:53:55;;;;;;;4.57;2.92;;;;;;;19.91;51.60;99727.28;343414;28;1190;-71
2022/07/31 00:54:08;;;;;;;3.63;2.90;;;;;;;19.83;51.92;99722.53;343323;28;1636;-71
2022/07/31 00:54:26;;;;;;;4.68;2.80;;;;;;;19.81;52.21;99726.25;342297;28;1572;-71
2022/07/31 00:54:39;;;;;;;4.90;2.80;;;;;;;19.76;52.24;99726.56;344062;28;1643;-71
2022/07/31 00:54:51;;;;;;;3.55;2.75;;;;;;;19.68;52.83;99729.69;344058;28;1495;-71
2022/07/31 00:55:03;;;;;;;4.13;2.90;;;;;;;19.64;52.77;99727.38;343036;28;1615;-71
2022/07/31 00:55:15;;;;;;;4.18;2.90;;;;;;;19.64;52.51;99727.38;344360;28;1594;-71
2022/07/31 00:55:28;;;;;;;3.38;2.80;;;;;;;19.65;52.41;99729.06;344935;28;1334;-71
2022/07/31 00:55:40;;;;;;;2.92;2.63;;;;;;;19.66;52.54;99726.34;343084;28;1948;-71
2022/07/31 00:56:02;;;;;;;3.78;2.65;;;;;;;19.69;52.71;99725.25;342959;28;1638;-71
2022/07/31 00:56:14;;;;;;;4.05;2.85;;;;;;;19.70;52.60;99721.69;343460;28;1643;-71
2022/07/31 00:56:26;;;;;;;3.20;2.90;;;;;;;19.71;52.76;99723.41;343483;28;1218;-71
2022/07/31 00:56:39;;;;;;;3.63;2.97;;;;;;;19.72;52.87;99722.47;343282;28;2084;-71
2022/07/31 00:56:51;;;;;;;4.57;2.88;;;;;;;19.74;52.96;99723.19;343536;28;1153;-71
2022/07/31 00:57:04;;;;;;;4.43;2.85;;;;;;;19.77;53.30;99722.13;342964;28;1655;-71
2022/07/31 00:57:17;;;;;;;3.88;2.90;;;;;;;19.78;53.33;99723.81;343378;28;1545;-71
2022/07/31 00:57:29;;;;;;;4.20;2.80;;;;;;;19.78;53.01;99724.66;342480;28;1082;-71
2022/07/31 00:57:42;;;;;;;3.75;2.63;;;;;;;19.79;53.20;99721.06;342528;28;1033;-71
2022/07/31 00:57:54;;;;;;;3.22;2.67;;;;;;;19.80;53.35;99717.50;342468;28;1067;-71
2022/07/31 00:58:06;;;;;;;4.30;2.60;;;;;;;19.83;53.16;99725.19;342143;28;1701;-71
2022/07/31 00:58:19;;;;;;;4.00;2.70;;;;;;;19.83;53.12;99725.19;342654;28;2045;-71
2022/07/31 00:58:31;;;;;;;4.35;2.80;;;;;;;19.73;52.92;99718.84;343769;28;1046;-71
2022/07/31 00:58:43;;;;;;;3.97;2.90;;;;;;;19.69;52.87;99720.00;343755;28;1095;-71
2022/07/31 00:58:55;;;;;;;4.65;2.92;;;;;;;19.60;52.69;99723.25;343045;28;1764;-71
2022/07/31 00:59:07;;;;;;;4.85;2.80;;;;;;;19.53;53.03;99715.75;341717;28;1937;-71
2022/07/31 00:59:19;;;;;;;7.00;2.80;;;;;;;19.49;53.52;99724.84;339701;29;1065;-71
2022/07/31 00:59:35;;;;;;;5.57;2.90;;;;;;;19.52;53.64;99723.81;339593;29;1900;-71
2022/07/31 00:59:48;;;;;;;4.00;2.97;;;;;;;19.53;53.73;99726.31;339606;29;1075;-71
2022/07/31 01:00:00;;;;;;;3.72;2.88;;;;;;;19.54;53.93;99722.75;341183;28;1817;-72
2022/07/31 01:00:14;;;;;;;3.53;2.65;;;;;;;19.56;54.01;99720.00;341876;28;1900;-72
2022/07/31 01:00:26;;;;;;;3.30;2.70;;;;;;;19.59;53.91;99724.22;341743;28;1799;-72
2022/07/31 01:00:38;;;;;;;3.38;2.75;;;;;;;19.59;53.67;99724.22;341783;28;1380;-72
2022/07/31 01:00:50;;;;;;;3.95;2.88;;;;;;;19.62;53.44;99724.84;340939;29;1067;-72
2022/07/31 01:01:02;;;;;;;4.05;2.90;;;;;;;19.64;53.04;99722.09;340737;28;1921;-72
2022/07/31 01:01:14;;;;;;;4.90;2.95;;;;;;;19.60;52.72;99723.25;342338;28;1192;-72
2022/07/31 01:01:27;;;;;;;5.47;2.90;;;;;;;19.58;52.74;99727.78;343538;28;1100;-72
2022/07/31 01:01:39;;;;;;;4.15;3.10;;;;;;;19.56;52.65;99720.00;343200;28;1148;-72
2022/07/31 01:01:52;;;;;;;5.25;3.00;;;;;;;19.51;52.97;99720.31;343531;28;1338;-72
2022/07/31 01:02:04;;;;;;;5.25;2.75;;;;;;;19.51;53.22;99728.22;343030;28;1864;-72
2022/07/31 01:02:16;;;;;;;6.38;2.85;;;;;;;19.50;53.15;99723.06;344674;28;1419;-72